createdAt,value
2019-01-10T00:02:01.147Z,145.60
2019-01-10T00:04:32.631Z,146.67
2019-01-10T00:07:04.149Z,154.97
2019-01-10T00:09:35.413Z,151.27
2019-01-10T00:12:06.532Z,158.57
2019-01-10T00:14:39.168Z,155.40
2019-01-10T00:17:10.312Z,146.53
2019-01-10T00:19:41.358Z,149.57
2019-01-10T00:22:12.370Z,147.30
2019-01-10T00:24:43.615Z,151.40
2019-01-10T00:27:14.621Z,152.17
2019-01-10T00:29:46.017Z,150.85
2019-01-10T00:32:17.394Z,150.30
2019-01-10T00:34:48.592Z,144.07
2019-01-10T00:37:20.278Z,152.43
2019-01-10T00:39:51.598Z,152.60
2019-01-10T00:42:22.646Z,148.30
2019-01-10T00:44:54.434Z,141.90
2019-01-10T00:47:25.967Z,140.45
2019-01-10T00:49:57.150Z,141.07
2019-01-10T00:52:28.672Z,140.27
2019-01-10T00:55:01.679Z,142.70
2019-01-10T00:57:33.028Z,140.50
2019-01-10T01:00:05.640Z,147.43
2019-01-10T01:02:36.991Z,143.00
2019-01-10T01:05:10.079Z,148.93
2019-01-10T01:07:42.282Z,159.87
2019-01-10T01:10:17.232Z,147.87
2019-01-10T01:12:48.527Z,155.77
2019-01-10T01:15:20.168Z,155.50
2019-01-10T01:17:51.666Z,154.17
2019-01-10T01:20:24.392Z,157.57
2019-01-10T01:22:55.866Z,154.40
2019-01-10T01:25:27.112Z,155.57
2019-01-10T01:27:58.503Z,151.90
2019-01-10T01:30:30.014Z,147.95
2019-01-10T01:33:02.392Z,145.17
2019-01-10T01:35:35.657Z,153.67
2019-01-10T01:38:07.137Z,163.85
2019-01-10T01:40:38.652Z,159.83
2019-01-10T01:43:09.803Z,150.90
2019-01-10T01:45:41.095Z,153.25
2019-01-10T01:48:13.025Z,155.40
2019-01-10T01:50:44.086Z,165.13
2019-01-10T01:53:15.334Z,162.97
2019-01-10T01:55:46.606Z,178.17
2019-01-10T01:58:17.845Z,177.75
2019-01-10T02:00:49.711Z,181.93
2019-01-10T02:03:21.777Z,182.50
2019-01-10T02:05:53.245Z,174.43
2019-01-10T02:08:24.359Z,167.17
2019-01-10T02:10:55.747Z,168.57
2019-01-10T02:13:26.832Z,176.13
2019-01-10T02:15:59.364Z,176.50
2019-01-10T02:18:30.360Z,172.53
2019-01-10T02:21:01.800Z,185.43
2019-01-10T02:23:33.074Z,171.03
2019-01-10T02:26:04.229Z,183.77
2019-01-10T02:28:35.893Z,176.47
2019-01-10T02:31:07.723Z,168.37
2019-01-10T02:33:38.962Z,156.93
2019-01-10T02:36:10.068Z,146.60
2019-01-10T02:38:41.432Z,152.00
2019-01-10T02:41:12.775Z,153.90
2019-01-10T02:43:44.399Z,154.37
2019-01-10T02:46:15.604Z,165.20
2019-01-10T02:48:46.727Z,160.90
2019-01-10T02:51:17.921Z,135.88
2019-01-10T02:53:49.126Z,144.17
2019-01-10T02:56:20.197Z,140.57
2019-01-10T02:58:51.443Z,136.63
2019-01-10T03:01:23.076Z,145.53
2019-01-10T03:03:54.205Z,140.67
2019-01-10T03:06:25.507Z,135.43
2019-01-10T03:08:58.082Z,136.57
2019-01-10T03:11:29.123Z,136.27
2019-01-10T03:14:00.130Z,133.30
2019-01-10T03:16:33.337Z,141.93
2019-01-10T03:19:04.719Z,141.00
2019-01-10T03:21:36.336Z,144.13
2019-01-10T03:24:07.877Z,147.87
2019-01-10T03:26:39.010Z,144.07
2019-01-10T03:29:11.662Z,146.77
2019-01-10T03:31:43.515Z,143.00
2019-01-10T03:34:14.522Z,136.97
2019-01-10T03:36:45.731Z,148.13
2019-01-10T03:39:16.978Z,132.50
2019-01-10T03:41:48.599Z,128.07
2019-01-10T03:44:19.733Z,131.67
2019-01-10T03:46:50.988Z,137.13
2019-01-10T03:49:22.264Z,135.37
2019-01-10T03:51:53.432Z,119.67
2019-01-10T03:54:24.694Z,129.10
2019-01-10T03:56:55.847Z,120.00
2019-01-10T03:59:27.072Z,126.00
2019-01-10T04:01:58.469Z,127.97
2019-01-10T04:04:29.725Z,121.97
2019-01-10T04:07:01.467Z,117.57
2019-01-10T04:09:34.819Z,119.83
2019-01-10T04:12:06.158Z,119.20
2019-01-10T04:14:37.399Z,113.23
2019-01-10T04:17:08.431Z,115.73
2019-01-10T04:19:39.669Z,116.27
2019-01-10T04:22:11.225Z,113.90
2019-01-10T04:24:42.367Z,120.90
2019-01-10T04:27:13.605Z,117.75
2019-01-10T04:29:45.019Z,133.20
2019-01-10T04:32:16.144Z,129.30
2019-01-10T04:34:47.392Z,125.10
2019-01-10T04:37:18.805Z,127.67
2019-01-10T04:39:50.002Z,131.80
2019-01-10T04:42:21.849Z,127.93
2019-01-10T04:44:55.493Z,135.87
2019-01-10T04:47:27.021Z,139.43
2019-01-10T04:49:58.110Z,140.13
2019-01-10T04:52:29.600Z,135.57
2019-01-10T04:55:00.836Z,141.00
2019-01-10T04:57:32.158Z,148.67
2019-01-10T05:00:04.192Z,153.47
2019-01-10T05:02:35.805Z,159.77
2019-01-10T05:05:07.105Z,150.50
2019-01-10T05:07:39.651Z,155.40
2019-01-10T05:10:11.243Z,163.27
2019-01-10T05:12:43.416Z,159.73
2019-01-10T05:15:14.654Z,173.57
2019-01-10T05:17:46.368Z,154.03
2019-01-10T05:20:19.298Z,150.83
2019-01-10T05:22:51.639Z,147.63
2019-01-10T05:25:23.214Z,139.00
2019-01-10T05:27:55.286Z,139.53
2019-01-10T05:30:27.877Z,138.83
2019-01-10T05:32:58.998Z,130.33
2019-01-10T05:35:30.025Z,128.97
2019-01-10T05:38:01.466Z,130.23
2019-01-10T05:40:32.604Z,120.22
2019-01-10T05:43:03.996Z,113.33
2019-01-10T05:45:35.803Z,93.10
2019-01-10T05:48:07.276Z,83.60
2019-01-10T05:50:38.521Z,84.27
2019-01-10T05:53:09.576Z,86.10
2019-01-10T05:55:40.679Z,85.73
2019-01-10T05:58:11.838Z,99.13
2019-01-10T06:00:42.855Z,88.12
2019-01-10T06:03:14.108Z,81.08
2019-01-10T06:05:46.203Z,83.87
2019-01-10T06:08:17.739Z,81.80
2019-01-10T06:10:48.840Z,84.10
2019-01-10T06:13:20.155Z,82.27
2019-01-10T06:15:51.454Z,79.30
2019-01-10T06:18:22.916Z,85.33
2019-01-10T06:20:54.283Z,85.43
2019-01-10T06:23:27.880Z,82.60
2019-01-10T06:25:58.939Z,89.40
2019-01-10T06:28:30.083Z,86.03
2019-01-10T06:31:01.068Z,96.97
2019-01-10T06:33:32.111Z,77.20
2019-01-10T06:36:03.285Z,77.27
2019-01-10T06:38:35.474Z,75.60
2019-01-10T06:41:06.806Z,74.97
2019-01-10T06:43:38.575Z,74.23
2019-01-10T06:46:09.963Z,77.15
2019-01-10T06:48:41.765Z,79.43
2019-01-10T06:51:12.772Z,77.55
2019-01-10T06:53:43.934Z,80.23
2019-01-10T06:56:14.913Z,78.33
2019-01-10T06:58:46.311Z,75.67
2019-01-10T07:01:17.460Z,79.90
2019-01-10T07:03:50.129Z,79.90
2019-01-10T07:06:21.236Z,79.77
2019-01-10T07:08:52.795Z,80.33
2019-01-10T07:11:23.786Z,82.10
2019-01-10T07:13:55.077Z,76.40
2019-01-10T07:16:26.429Z,79.33
2019-01-10T07:18:57.609Z,83.70
2019-01-10T07:21:31.498Z,80.20
2019-01-10T07:24:02.584Z,83.25
2019-01-10T07:26:33.767Z,78.57
2019-01-10T07:29:09.211Z,80.37
2019-01-10T07:31:40.604Z,82.67
2019-01-10T07:34:11.765Z,82.00
2019-01-10T07:36:46.212Z,79.43
2019-01-10T07:39:17.593Z,82.02
2019-01-10T07:41:49.901Z,81.03
2019-01-10T07:44:25.296Z,80.40
2019-01-10T07:46:56.473Z,80.17
2019-01-10T07:49:27.915Z,82.97
2019-01-10T07:52:00.102Z,82.50
2019-01-10T07:54:31.250Z,81.30
2019-01-10T07:57:03.822Z,82.03
2019-01-10T07:59:34.882Z,76.30
2019-01-10T08:02:06.130Z,79.57
2019-01-10T08:04:38.672Z,82.40
2019-01-10T08:07:09.915Z,80.87
2019-01-10T08:09:41.401Z,83.97
2019-01-10T08:12:12.616Z,81.75
2019-01-10T08:14:43.892Z,90.10
2019-01-10T08:17:16.135Z,89.87
2019-01-10T08:19:49.428Z,87.63
2019-01-10T08:22:27.721Z,87.65
2019-01-10T08:24:54.415Z,87.83
2019-01-10T08:27:25.619Z,86.60
2019-01-10T08:29:59.556Z,91.87
2019-01-10T08:32:30.708Z,84.77
2019-01-10T08:35:01.964Z,79.58
2019-01-10T08:37:34.573Z,89.03
2019-01-10T08:40:07.050Z,88.47
2019-01-10T08:42:38.510Z,84.87
2019-01-10T08:45:10.857Z,86.67
2019-01-10T08:47:42.309Z,88.20
2019-01-10T08:50:19.051Z,89.23
2019-01-10T08:52:50.198Z,86.83
2019-01-10T08:55:21.525Z,89.27
2019-01-10T08:57:54.748Z,89.25
2019-01-10T09:00:27.677Z,88.03
2019-01-10T09:02:58.696Z,83.50
2019-01-10T09:05:31.644Z,83.42
2019-01-10T09:08:02.614Z,84.50
2019-01-10T09:10:35.238Z,78.37
2019-01-10T09:13:06.645Z,80.13
2019-01-10T09:15:37.961Z,81.37
2019-01-10T09:18:10.415Z,85.83
2019-01-10T09:20:41.428Z,87.25
2019-01-10T09:23:12.537Z,87.00
2019-01-10T09:25:44.048Z,90.63
2019-01-10T09:28:15.238Z,84.35
2019-01-10T09:30:46.896Z,87.40
2019-01-10T09:33:18.159Z,87.83
2019-01-10T09:35:49.172Z,85.57
2019-01-10T09:38:21.108Z,87.43
2019-01-10T09:40:52.352Z,90.50
2019-01-10T09:43:23.937Z,82.02
2019-01-10T09:45:55.103Z,83.90
2019-01-10T09:48:26.203Z,88.80
2019-01-10T09:50:57.423Z,95.07
2019-01-10T09:53:29.091Z,85.27
2019-01-10T09:56:00.213Z,83.37
2019-01-10T09:58:32.818Z,80.57
2019-01-10T10:01:04.219Z,80.60
2019-01-10T10:03:35.527Z,80.03
2019-01-10T10:06:08.002Z,80.92
2019-01-10T10:08:39.528Z,84.07
2019-01-10T10:11:10.611Z,83.77
2019-01-10T10:13:41.691Z,77.70
2019-01-10T10:16:12.799Z,76.43
2019-01-10T10:18:43.924Z,75.13
2019-01-10T10:21:15.039Z,78.15
2019-01-10T10:23:46.163Z,81.40
2019-01-10T10:26:17.853Z,78.92
2019-01-10T10:28:49.424Z,76.00
2019-01-10T10:31:20.738Z,76.60
2019-01-10T10:33:52.035Z,82.43
2019-01-10T10:36:23.039Z,80.90
2019-01-10T10:38:54.510Z,83.73
2019-01-10T10:41:25.780Z,88.33
2019-01-10T10:43:56.876Z,92.00
2019-01-10T10:46:28.036Z,97.43
2019-01-10T10:48:59.243Z,103.53
2019-01-10T10:51:31.841Z,100.23
2019-01-10T10:54:03.372Z,108.70
2019-01-10T10:56:34.580Z,97.17
2019-01-10T10:59:05.982Z,102.00
2019-01-10T11:01:37.544Z,108.90
2019-01-10T11:04:08.629Z,104.63
2019-01-10T11:06:39.731Z,108.17
2019-01-10T11:09:11.387Z,107.70
2019-01-10T11:11:44.271Z,103.30
2019-01-10T11:14:15.283Z,107.12
2019-01-10T11:16:46.540Z,104.80
2019-01-10T11:19:17.626Z,105.63
2019-01-10T11:21:49.005Z,109.60
2019-01-10T11:24:20.688Z,113.63
2019-01-10T11:26:53.479Z,113.63
2019-01-10T11:29:24.833Z,110.33
2019-01-10T11:31:55.861Z,111.85
2019-01-10T11:34:27.270Z,100.17
2019-01-10T11:36:58.412Z,97.20
2019-01-10T11:39:29.648Z,98.33
2019-01-10T11:42:01.244Z,96.47
2019-01-10T11:44:32.660Z,89.60
2019-01-10T11:47:03.811Z,91.30
2019-01-10T11:49:34.923Z,83.50
2019-01-10T11:52:07.317Z,79.80
2019-01-10T11:54:38.412Z,87.60
2019-01-10T11:57:09.597Z,84.57
2019-01-10T11:59:40.782Z,78.27
2019-01-10T12:02:12.454Z,77.40
2019-01-10T12:04:43.697Z,77.50
2019-01-10T12:07:16.278Z,76.92
2019-01-10T12:09:47.462Z,74.07
2019-01-10T12:12:19.829Z,74.37
2019-01-10T12:14:50.798Z,74.43
2019-01-10T12:17:22.989Z,70.07
2019-01-10T12:19:54.224Z,63.77
2019-01-10T12:22:25.402Z,69.17
2019-01-10T12:24:56.932Z,70.80
2019-01-10T12:27:28.895Z,75.87
2019-01-10T12:30:01.786Z,73.67
2019-01-10T12:32:34.208Z,73.30
2019-01-10T12:35:07.606Z,62.43
2019-01-10T12:37:39.257Z,63.03
2019-01-10T12:40:12.120Z,54.58
2019-01-10T12:42:43.761Z,59.97
2019-01-10T12:45:16.245Z,58.33
2019-01-10T12:47:48.825Z,54.30
2019-01-10T12:50:25.521Z,53.93
2019-01-10T12:52:56.707Z,56.33
2019-01-10T12:55:27.899Z,55.77
2019-01-10T12:57:59.408Z,62.83
2019-01-10T13:00:30.522Z,64.37
2019-01-10T13:03:01.852Z,61.63
2019-01-10T13:05:33.049Z,58.33
2019-01-10T13:08:05.905Z,59.13
2019-01-10T13:10:37.004Z,60.20
2019-01-10T13:13:08.308Z,62.37
2019-01-10T13:15:39.450Z,66.03
2019-01-10T13:18:10.534Z,59.63
2019-01-10T13:20:42.076Z,60.77
2019-01-10T13:23:13.189Z,62.57
2019-01-10T13:25:44.646Z,64.13
2019-01-10T13:28:16.129Z,63.53
2019-01-10T13:30:47.434Z,63.27
2019-01-10T13:33:18.512Z,62.80
2019-01-10T13:35:49.966Z,62.63
2019-01-10T13:38:21.034Z,62.40
2019-01-10T13:40:52.768Z,64.80
2019-01-10T13:43:24.031Z,63.73
2019-01-10T13:45:55.484Z,67.20
2019-01-10T13:48:26.926Z,63.92
2019-01-10T13:50:58.150Z,63.63
2019-01-10T13:53:30.277Z,66.03
2019-01-10T13:56:03.054Z,67.23
2019-01-10T13:58:34.668Z,67.87
2019-01-10T14:01:06.730Z,68.80
2019-01-10T14:03:38.093Z,64.33
2019-01-10T14:06:10.647Z,73.00
2019-01-10T14:08:41.787Z,65.93
2019-01-10T14:11:13.112Z,67.73
2019-01-10T14:13:44.239Z,67.80
2019-01-10T14:16:15.444Z,70.28
2019-01-10T14:18:46.748Z,76.30
2019-01-10T14:21:18.058Z,74.30
2019-01-10T14:23:51.449Z,77.63
2019-01-10T14:26:22.989Z,81.35
2019-01-10T14:28:54.166Z,101.03
2019-01-10T14:31:25.415Z,125.50
2019-01-10T14:33:56.573Z,103.63
2019-01-10T14:36:27.946Z,88.33
2019-01-10T14:39:00.575Z,81.50
2019-01-10T14:41:31.866Z,79.33
2019-01-10T14:44:04.005Z,79.67
2019-01-10T14:46:35.087Z,75.30
2019-01-10T14:49:06.479Z,73.23
2019-01-10T14:51:37.908Z,79.87
2019-01-10T14:54:09.596Z,76.50
2019-01-10T14:56:41.750Z,77.27
2019-01-10T14:59:14.038Z,82.25
2019-01-10T15:01:45.310Z,79.30
2019-01-10T15:04:16.788Z,78.10
2019-01-10T15:06:49.533Z,81.03
2019-01-10T15:09:22.115Z,88.00
2019-01-10T15:11:53.315Z,88.17
2019-01-10T15:14:24.688Z,86.60
2019-01-10T15:16:55.859Z,87.17
2019-01-10T15:19:27.321Z,93.97
2019-01-10T15:21:59.122Z,87.57
2019-01-10T15:24:30.477Z,85.93
2019-01-10T15:27:01.661Z,89.83
2019-01-10T15:29:33.685Z,87.62
2019-01-10T15:32:05.274Z,84.60
2019-01-10T15:34:36.419Z,85.63
2019-01-10T15:37:07.968Z,85.57
2019-01-10T15:39:39.380Z,88.87
2019-01-10T15:42:10.715Z,87.10
2019-01-10T15:44:42.000Z,85.77
2019-01-10T15:47:13.039Z,88.03
2019-01-10T15:49:44.322Z,91.45
2019-01-10T15:52:15.559Z,91.43
2019-01-10T15:54:47.194Z,95.77
2019-01-10T15:57:19.183Z,93.97
2019-01-10T15:59:50.491Z,97.13
2019-01-10T16:02:22.330Z,98.95
2019-01-10T16:04:53.795Z,98.27
2019-01-10T16:07:24.863Z,95.95
2019-01-10T16:09:57.623Z,96.00
2019-01-10T16:12:28.588Z,93.30
2019-01-10T16:14:59.920Z,92.37
2019-01-10T16:17:31.026Z,90.20
2019-01-10T16:20:03.408Z,85.60
2019-01-10T16:22:34.511Z,87.37
2019-01-10T16:25:07.179Z,90.05
2019-01-10T16:27:38.843Z,91.07
2019-01-10T16:30:16.163Z,89.90
2019-01-10T16:32:48.932Z,82.47
2019-01-10T16:35:20.168Z,81.73
2019-01-10T16:37:51.284Z,81.30
2019-01-10T16:40:22.578Z,78.97
2019-01-10T16:42:55.071Z,71.90
2019-01-10T16:45:30.727Z,75.50
2019-01-10T16:48:03.599Z,75.27
2019-01-10T16:50:35.133Z,72.50
2019-01-10T16:53:06.352Z,68.53
2019-01-10T16:55:38.362Z,68.17
2019-01-10T16:58:09.427Z,62.73
2019-01-10T17:00:40.744Z,65.73
2019-01-10T17:03:12.622Z,64.40
2019-01-10T17:05:43.683Z,67.50
2019-01-10T17:08:15.067Z,69.73
2019-01-10T17:10:46.072Z,66.53
2019-01-10T17:13:17.208Z,70.90
2019-01-10T17:15:48.425Z,73.30
2019-01-10T17:18:19.482Z,65.52
2019-01-10T17:20:52.006Z,70.23
2019-01-10T17:23:23.296Z,64.63
2019-01-10T17:25:54.563Z,63.77
2019-01-10T17:28:25.553Z,63.37
2019-01-10T17:30:56.996Z,66.70
2019-01-10T17:33:28.146Z,67.27
2019-01-10T17:35:59.464Z,69.10
2019-01-10T17:38:30.646Z,78.90
2019-01-10T17:41:02.023Z,67.30
2019-01-10T17:43:33.340Z,73.27
2019-01-10T17:46:04.813Z,73.17
2019-01-10T17:48:37.049Z,75.40
2019-01-10T17:51:09.143Z,74.87
2019-01-10T17:53:40.267Z,75.27
2019-01-10T17:56:11.585Z,71.65
2019-01-10T17:58:42.960Z,75.32
2019-01-10T18:01:15.125Z,80.50
2019-01-10T18:03:47.319Z,75.00
2019-01-10T18:06:18.515Z,78.63
2019-01-10T18:08:51.014Z,78.33
2019-01-10T18:11:22.159Z,79.57
2019-01-10T18:13:53.403Z,77.67
2019-01-10T18:16:24.629Z,83.07
2019-01-10T18:18:55.792Z,82.82
2019-01-10T18:21:27.652Z,74.43
2019-01-10T18:23:58.898Z,81.80
2019-01-10T18:26:30.242Z,81.60
2019-01-10T18:29:01.191Z,84.73
2019-01-10T18:31:32.210Z,79.87
2019-01-10T18:34:03.351Z,84.95
2019-01-10T18:36:34.374Z,83.50
2019-01-10T18:39:08.273Z,86.00
2019-01-10T18:41:39.982Z,77.30
2019-01-10T18:44:12.258Z,82.77
2019-01-10T18:46:43.372Z,85.90
2019-01-10T18:49:14.507Z,83.83
2019-01-10T18:51:45.635Z,86.63
2019-01-10T18:54:16.888Z,83.10
2019-01-10T18:56:48.961Z,84.53
2019-01-10T18:59:19.968Z,83.60
2019-01-10T19:01:51.310Z,85.87
2019-01-10T19:04:22.818Z,88.90
2019-01-10T19:06:54.008Z,87.42
2019-01-10T19:09:27.613Z,93.63
2019-01-10T19:11:58.671Z,93.50
2019-01-10T19:14:30.035Z,89.43
2019-01-10T19:17:01.964Z,93.10
2019-01-10T19:19:34.990Z,92.73
2019-01-10T19:22:06.592Z,87.47
2019-01-10T19:24:38.256Z,90.93
2019-01-10T19:27:09.306Z,91.23
2019-01-10T19:29:40.470Z,94.07
2019-01-10T19:32:11.683Z,92.27
2019-01-10T19:34:42.875Z,90.83
2019-01-10T19:37:14.032Z,90.17
2019-01-10T19:39:45.226Z,97.10
2019-01-10T19:42:16.400Z,87.17
2019-01-10T19:44:47.736Z,91.83
2019-01-10T19:47:18.971Z,96.35
2019-01-10T19:49:50.186Z,89.90
2019-01-10T19:52:21.401Z,100.00
2019-01-10T19:54:53.488Z,101.73
2019-01-10T19:57:24.742Z,95.73
2019-01-10T19:59:55.736Z,94.25
2019-01-10T20:02:27.255Z,97.67
2019-01-10T20:04:58.577Z,93.13
2019-01-10T20:07:29.805Z,90.67
2019-01-10T20:10:01.007Z,91.03
2019-01-10T20:12:33.063Z,92.93
2019-01-10T20:15:04.649Z,87.07
2019-01-10T20:17:37.612Z,85.20
2019-01-10T20:20:14.291Z,84.33
2019-01-10T20:22:45.874Z,80.50
2019-01-10T20:25:16.982Z,83.78
2019-01-10T20:27:48.307Z,87.07
2019-01-10T20:30:20.037Z,96.03
2019-01-10T20:32:51.299Z,91.20
2019-01-10T20:35:22.555Z,86.22
2019-01-10T20:37:53.820Z,91.10
2019-01-10T20:40:24.830Z,91.53
2019-01-10T20:42:55.968Z,85.50
2019-01-10T20:45:27.129Z,93.43
2019-01-10T20:47:58.238Z,87.70
2019-01-10T20:50:29.493Z,90.47
2019-01-10T20:53:00.755Z,94.03
2019-01-10T20:55:32.061Z,96.23
2019-01-10T20:58:03.550Z,94.87
2019-01-10T21:00:34.548Z,96.07
2019-01-10T21:03:06.153Z,94.52
2019-01-10T21:05:38.053Z,97.03
2019-01-10T21:08:09.111Z,100.63
2019-01-10T21:10:40.845Z,96.83
2019-01-10T21:13:12.149Z,95.55
2019-01-10T21:15:43.601Z,93.53
2019-01-10T21:18:15.630Z,99.37
2019-01-10T21:20:47.618Z,109.10
2019-01-10T21:23:20.463Z,117.80
2019-01-10T21:25:52.151Z,119.63
2019-01-10T21:28:24.513Z,116.07
2019-01-10T21:30:55.901Z,122.50
2019-01-10T21:33:27.368Z,110.70
2019-01-10T21:35:59.087Z,110.33
2019-01-10T21:38:30.483Z,111.13
2019-01-10T21:41:03.346Z,111.43
2019-01-10T21:43:34.663Z,110.53
2019-01-10T21:46:06.343Z,116.12
2019-01-10T21:48:37.555Z,111.97
2019-01-10T21:51:09.019Z,121.45
2019-01-10T21:53:41.595Z,118.90
2019-01-10T21:56:12.675Z,113.35
2019-01-10T21:58:43.755Z,117.65
2019-01-10T22:01:15.008Z,114.40
2019-01-10T22:03:46.373Z,114.47
2019-01-10T22:06:18.150Z,118.17
2019-01-10T22:08:49.642Z,114.83
2019-01-10T22:11:21.013Z,115.47
2019-01-10T22:13:52.359Z,115.57
2019-01-10T22:16:23.754Z,119.63
2019-01-10T22:18:55.972Z,116.40
2019-01-10T22:21:27.314Z,118.80
2019-01-10T22:24:01.123Z,110.70
2019-01-10T22:26:32.290Z,115.37
2019-01-10T22:29:05.131Z,114.53
2019-01-10T22:31:37.688Z,117.27
2019-01-10T22:34:09.189Z,110.32
2019-01-10T22:36:40.704Z,116.93
2019-01-10T22:39:12.190Z,118.13
2019-01-10T22:41:43.512Z,120.77
2019-01-10T22:44:14.854Z,120.90
2019-01-10T22:46:46.290Z,130.93
2019-01-10T22:49:18.041Z,118.07
2019-01-10T22:51:49.643Z,122.13
2019-01-10T22:54:21.303Z,118.45
2019-01-10T22:56:52.732Z,118.60
2019-01-10T22:59:24.291Z,120.17
2019-01-10T23:01:57.882Z,115.73
2019-01-10T23:04:33.168Z,118.67
2019-01-10T23:07:09.577Z,121.43
2019-01-10T23:09:41.135Z,113.77
2019-01-10T23:12:12.481Z,112.12
2019-01-10T23:14:43.699Z,115.60
2019-01-10T23:17:15.300Z,120.80
2019-01-10T23:19:53.444Z,112.57
2019-01-10T23:22:24.838Z,112.37
2019-01-10T23:24:57.982Z,110.20
2019-01-10T23:27:29.224Z,116.47
2019-01-10T23:30:01.102Z,114.23
2019-01-10T23:32:32.397Z,120.27
2019-01-10T23:35:04.631Z,114.80
2019-01-10T23:37:35.756Z,120.30
2019-01-10T23:40:07.533Z,118.30
2019-01-10T23:42:39.491Z,112.40
2019-01-10T23:45:10.743Z,110.83
2019-01-10T23:47:43.475Z,112.50
2019-01-10T23:50:14.773Z,112.95
2019-01-10T23:52:46.246Z,108.43
2019-01-10T23:55:20.939Z,112.43
2019-01-10T23:57:52.176Z,110.77
